sensor_id;sensor_type;location;lat;lon;timestamp;P1;durP1;ratioP1;P2;durP2;ratioP2
10904;SDS011;5505;51.450;9.254;2023-05-10T00:00:13;5.30;;;4.90;;
10904;SDS011;5505;51.450;9.254;2023-05-10T00:03:01;5.10;;;4.63;;
10904;SDS011;5505;51.450;9.254;2023-05-10T00:05:49;5.10;;;4.60;;
10904;SDS011;5505;51.450;9.254;2023-05-10T00:08:36;5.53;;;5.03;;
10904;SDS011;5505;51.450;9.254;2023-05-10T00:11:24;5.80;;;5.30;;
10904;SDS011;5505;51.450;9.254;2023-05-10T00:14:11;5.67;;;5.27;;
10904;SDS011;5505;51.450;9.254;2023-05-10T00:16:57;5.50;;;5.10;;
10904;SDS011;5505;51.450;9.254;2023-05-10T00:19:44;5.57;;;5.07;;
10904;SDS011;5505;51.450;9.254;2023-05-10T00:22:31;5.60;;;5.10;;
10904;SDS011;5505;51.450;9.254;2023-05-10T00:25:18;7.07;;;5.10;;
10904;SDS011;5505;51.450;9.254;2023-05-10T00:28:07;6.20;;;5.60;;
10904;SDS011;5505;51.450;9.254;2023-05-10T00:30:54;5.87;;;5.37;;
10904;SDS011;5505;51.450;9.254;2023-05-10T00:33:41;6.53;;;5.33;;
10904;SDS011;5505;51.450;9.254;2023-05-10T00:36:28;6.60;;;6.00;;
10904;SDS011;5505;51.450;9.254;2023-05-10T00:39:16;7.27;;;6.57;;
10904;SDS011;5505;51.450;9.254;2023-05-10T00:42:03;6.83;;;6.10;;
10904;SDS011;5505;51.450;9.254;2023-05-10T00:44:51;7.07;;;6.47;;
10904;SDS011;5505;51.450;9.254;2023-05-10T00:47:38;6.83;;;6.13;;
10904;SDS011;5505;51.450;9.254;2023-05-10T00:50:25;7.23;;;6.63;;
10904;SDS011;5505;51.450;9.254;2023-05-10T00:53:12;6.70;;;6.17;;
10904;SDS011;5505;51.450;9.254;2023-05-10T00:55:59;6.40;;;5.90;;
10904;SDS011;5505;51.450;9.254;2023-05-10T00:58:46;6.80;;;6.30;;
10904;SDS011;5505;51.450;9.254;2023-05-10T01:01:34;6.67;;;6.17;;
10904;SDS011;5505;51.450;9.254;2023-05-10T01:04:22;7.17;;;6.57;;
10904;SDS011;5505;51.450;9.254;2023-05-10T01:07:10;7.10;;;6.50;;
10904;SDS011;5505;51.450;9.254;2023-05-10T01:09:57;7.17;;;6.57;;
10904;SDS011;5505;51.450;9.254;2023-05-10T01:12:45;7.10;;;6.40;;
10904;SDS011;5505;51.450;9.254;2023-05-10T01:15:33;6.37;;;5.77;;
10904;SDS011;5505;51.450;9.254;2023-05-10T01:18:21;7.87;;;7.07;;
10904;SDS011;5505;51.450;9.254;2023-05-10T01:21:14;7.50;;;6.80;;
10904;SDS011;5505;51.450;9.254;2023-05-10T01:27:43;7.57;;;6.87;;
10904;SDS011;5505;51.450;9.254;2023-05-10T01:30:46;6.93;;;6.33;;
10904;SDS011;5505;51.450;9.254;2023-05-10T01:34:01;6.77;;;6.17;;
10904;SDS011;5505;51.450;9.254;2023-05-10T01:36:54;6.87;;;6.37;;
10904;SDS011;5505;51.450;9.254;2023-05-10T01:39:47;7.67;;;6.97;;
10904;SDS011;5505;51.450;9.254;2023-05-10T01:42:43;7.10;;;6.50;;
10904;SDS011;5505;51.450;9.254;2023-05-10T01:45:37;8.17;;;7.43;;
10904;SDS011;5505;51.450;9.254;2023-05-10T01:48:29;7.53;;;6.93;;
10904;SDS011;5505;51.450;9.254;2023-05-10T01:51:19;7.10;;;6.40;;
10904;SDS011;5505;51.450;9.254;2023-05-10T01:54:11;7.37;;;6.80;;
10904;SDS011;5505;51.450;9.254;2023-05-10T01:57:00;6.83;;;6.20;;
10904;SDS011;5505;51.450;9.254;2023-05-10T01:59:51;7.17;;;6.57;;
10904;SDS011;5505;51.450;9.254;2023-05-10T02:02:40;8.00;;;7.30;;
10904;SDS011;5505;51.450;9.254;2023-05-10T02:05:30;7.73;;;7.00;;
10904;SDS011;5505;51.450;9.254;2023-05-10T02:08:20;7.33;;;6.70;;
10904;SDS011;5505;51.450;9.254;2023-05-10T02:11:08;6.87;;;6.27;;
10904;SDS011;5505;51.450;9.254;2023-05-10T02:13:58;7.03;;;6.43;;
10904;SDS011;5505;51.450;9.254;2023-05-10T02:16:46;6.57;;;5.97;;
10904;SDS011;5505;51.450;9.254;2023-05-10T02:19:37;6.93;;;6.30;;
10904;SDS011;5505;51.450;9.254;2023-05-10T02:22:26;7.77;;;6.93;;
10904;SDS011;5505;51.450;9.254;2023-05-10T02:25:15;6.93;;;6.33;;
10904;SDS011;5505;51.450;9.254;2023-05-10T02:28:05;6.93;;;6.33;;
10904;SDS011;5505;51.450;9.254;2023-05-10T02:30:54;7.33;;;6.63;;
10904;SDS011;5505;51.450;9.254;2023-05-10T02:33:42;7.00;;;6.40;;
10904;SDS011;5505;51.450;9.254;2023-05-10T02:36:30;6.63;;;5.97;;
10904;SDS011;5505;51.450;9.254;2023-05-10T02:39:18;6.33;;;5.83;;
10904;SDS011;5505;51.450;9.254;2023-05-10T02:42:07;5.33;;;4.93;;
10904;SDS011;5505;51.450;9.254;2023-05-10T02:44:56;5.90;;;5.40;;
10904;SDS011;5505;51.450;9.254;2023-05-10T02:47:46;4.57;;;4.27;;
10904;SDS011;5505;51.450;9.254;2023-05-10T02:50:34;3.40;;;3.10;;
10904;SDS011;5505;51.450;9.254;2023-05-10T02:53:23;1.70;;;1.60;;
10904;SDS011;5505;51.450;9.254;2023-05-10T02:56:20;1.30;;;1.10;;
10904;SDS011;5505;51.450;9.254;2023-05-10T02:59:12;0.80;;;0.80;;
10904;SDS011;5505;51.450;9.254;2023-05-10T03:01:59;1.63;;;0.80;;
10904;SDS011;5505;51.450;9.254;2023-05-10T03:04:47;1.40;;;0.50;;
10904;SDS011;5505;51.450;9.254;2023-05-10T03:07:34;0.67;;;0.67;;
10904;SDS011;5505;51.450;9.254;2023-05-10T03:10:21;0.70;;;0.70;;
10904;SDS011;5505;51.450;9.254;2023-05-10T03:13:12;1.07;;;0.80;;
10904;SDS011;5505;51.450;9.254;2023-05-10T03:16:10;1.03;;;1.00;;
10904;SDS011;5505;51.450;9.254;2023-05-10T03:19:04;0.70;;;0.70;;
10904;SDS011;5505;51.450;9.254;2023-05-10T03:21:58;0.80;;;0.80;;
10904;SDS011;5505;51.450;9.254;2023-05-10T03:24:49;1.33;;;0.60;;
10904;SDS011;5505;51.450;9.254;2023-05-10T03:27:38;1.23;;;0.90;;
10904;SDS011;5505;51.450;9.254;2023-05-10T03:30:27;1.30;;;1.20;;
10904;SDS011;5505;51.450;9.254;2023-05-10T03:33:16;1.73;;;1.13;;
10904;SDS011;5505;51.450;9.254;2023-05-10T03:36:03;1.30;;;1.17;;
10904;SDS011;5505;51.450;9.254;2023-05-10T03:38:50;1.40;;;1.30;;
10904;SDS011;5505;51.450;9.254;2023-05-10T03:41:37;3.53;;;1.50;;
10904;SDS011;5505;51.450;9.254;2023-05-10T03:44:24;2.23;;;1.53;;
10904;SDS011;5505;51.450;9.254;2023-05-10T03:47:11;1.63;;;1.20;;
10904;SDS011;5505;51.450;9.254;2023-05-10T03:49:59;1.40;;;1.30;;
10904;SDS011;5505;51.450;9.254;2023-05-10T03:52:45;1.30;;;1.20;;
10904;SDS011;5505;51.450;9.254;2023-05-10T03:55:32;1.13;;;1.13;;
10904;SDS011;5505;51.450;9.254;2023-05-10T03:58:21;1.10;;;1.07;;
10904;SDS011;5505;51.450;9.254;2023-05-10T04:01:08;2.43;;;0.93;;
10904;SDS011;5505;51.450;9.254;2023-05-10T04:03:54;0.90;;;0.90;;
10904;SDS011;5505;51.450;9.254;2023-05-10T04:06:42;0.90;;;0.90;;
10904;SDS011;5505;51.450;9.254;2023-05-10T04:09:29;0.90;;;0.90;;
10904;SDS011;5505;51.450;9.254;2023-05-10T04:12:16;1.17;;;1.07;;
10904;SDS011;5505;51.450;9.254;2023-05-10T04:15:03;1.10;;;0.80;;
10904;SDS011;5505;51.450;9.254;2023-05-10T04:17:51;0.80;;;0.80;;
10904;SDS011;5505;51.450;9.254;2023-05-10T04:20:38;0.63;;;0.63;;
10904;SDS011;5505;51.450;9.254;2023-05-10T04:23:26;1.00;;;1.00;;
10904;SDS011;5505;51.450;9.254;2023-05-10T04:26:13;0.70;;;0.70;;
10904;SDS011;5505;51.450;9.254;2023-05-10T04:29:00;0.70;;;0.70;;
10904;SDS011;5505;51.450;9.254;2023-05-10T04:31:47;1.77;;;0.77;;
10904;SDS011;5505;51.450;9.254;2023-05-10T04:34:34;1.00;;;1.00;;
10904;SDS011;5505;51.450;9.254;2023-05-10T04:37:21;0.80;;;0.80;;
10904;SDS011;5505;51.450;9.254;2023-05-10T04:40:09;1.90;;;0.60;;
10904;SDS011;5505;51.450;9.254;2023-05-10T04:42:57;0.67;;;0.67;;
10904;SDS011;5505;51.450;9.254;2023-05-10T04:45:44;0.60;;;0.60;;
10904;SDS011;5505;51.450;9.254;2023-05-10T04:48:31;0.50;;;0.50;;
10904;SDS011;5505;51.450;9.254;2023-05-10T04:51:17;0.60;;;0.60;;
10904;SDS011;5505;51.450;9.254;2023-05-10T04:54:05;1.53;;;0.50;;
10904;SDS011;5505;51.450;9.254;2023-05-10T04:56:53;0.90;;;0.70;;
10904;SDS011;5505;51.450;9.254;2023-05-10T04:59:40;0.50;;;0.50;;
10904;SDS011;5505;51.450;9.254;2023-05-10T05:02:27;0.50;;;0.50;;
10904;SDS011;5505;51.450;9.254;2023-05-10T05:05:14;0.40;;;0.40;;
10904;SDS011;5505;51.450;9.254;2023-05-10T05:08:01;0.73;;;0.50;;
10904;SDS011;5505;51.450;9.254;2023-05-10T05:10:48;0.50;;;0.40;;
10904;SDS011;5505;51.450;9.254;2023-05-10T05:13:36;0.83;;;0.60;;
10904;SDS011;5505;51.450;9.254;2023-05-10T05:16:23;0.53;;;0.53;;
10904;SDS011;5505;51.450;9.254;2023-05-10T05:19:10;0.50;;;0.50;;
10904;SDS011;5505;51.450;9.254;2023-05-10T05:21:57;0.50;;;0.40;;
10904;SDS011;5505;51.450;9.254;2023-05-10T05:24:44;0.40;;;0.40;;
10904;SDS011;5505;51.450;9.254;2023-05-10T05:27:31;0.40;;;0.40;;
10904;SDS011;5505;51.450;9.254;2023-05-10T05:30:19;0.37;;;0.37;;
10904;SDS011;5505;51.450;9.254;2023-05-10T05:33:06;2.47;;;0.50;;
10904;SDS011;5505;51.450;9.254;2023-05-10T05:35:53;0.50;;;0.50;;
10904;SDS011;5505;51.450;9.254;2023-05-10T05:38:39;0.60;;;0.57;;
10904;SDS011;5505;51.450;9.254;2023-05-10T05:41:26;0.67;;;0.60;;
10904;SDS011;5505;51.450;9.254;2023-05-10T05:44:13;0.80;;;0.33;;
10904;SDS011;5505;51.450;9.254;2023-05-10T05:47:01;0.73;;;0.60;;
10904;SDS011;5505;51.450;9.254;2023-05-10T05:49:48;0.57;;;0.57;;
10904;SDS011;5505;51.450;9.254;2023-05-10T05:52:35;0.43;;;0.43;;
10904;SDS011;5505;51.450;9.254;2023-05-10T05:55:22;0.40;;;0.40;;
10904;SDS011;5505;51.450;9.254;2023-05-10T05:58:09;0.63;;;0.63;;
10904;SDS011;5505;51.450;9.254;2023-05-10T06:00:55;1.27;;;0.83;;
10904;SDS011;5505;51.450;9.254;2023-05-10T06:03:44;0.70;;;0.53;;
10904;SDS011;5505;51.450;9.254;2023-05-10T06:06:30;0.93;;;0.57;;
10904;SDS011;5505;51.450;9.254;2023-05-10T06:09:17;3.20;;;0.50;;
10904;SDS011;5505;51.450;9.254;2023-05-10T06:12:04;0.67;;;0.47;;
10904;SDS011;5505;51.450;9.254;2023-05-10T06:14:51;1.60;;;0.60;;
10904;SDS011;5505;51.450;9.254;2023-05-10T06:17:38;1.17;;;0.47;;
10904;SDS011;5505;51.450;9.254;2023-05-10T06:20:26;0.60;;;0.50;;
10904;SDS011;5505;51.450;9.254;2023-05-10T06:23:13;1.20;;;0.30;;
10904;SDS011;5505;51.450;9.254;2023-05-10T06:26:00;0.63;;;0.50;;
10904;SDS011;5505;51.450;9.254;2023-05-10T06:28:46;0.40;;;0.40;;
10904;SDS011;5505;51.450;9.254;2023-05-10T06:31:33;1.23;;;0.57;;
10904;SDS011;5505;51.450;9.254;2023-05-10T06:34:20;0.83;;;0.20;;
10904;SDS011;5505;51.450;9.254;2023-05-10T06:37:08;1.20;;;0.30;;
10904;SDS011;5505;51.450;9.254;2023-05-10T06:39:55;0.40;;;0.40;;
10904;SDS011;5505;51.450;9.254;2023-05-10T06:42:42;0.30;;;0.30;;
10904;SDS011;5505;51.450;9.254;2023-05-10T06:45:30;0.70;;;0.30;;
10904;SDS011;5505;51.450;9.254;2023-05-10T06:48:17;1.10;;;0.30;;
10904;SDS011;5505;51.450;9.254;2023-05-10T06:51:03;1.07;;;0.30;;
10904;SDS011;5505;51.450;9.254;2023-05-10T06:53:52;1.27;;;0.40;;
10904;SDS011;5505;51.450;9.254;2023-05-10T06:56:39;0.30;;;0.23;;
10904;SDS011;5505;51.450;9.254;2023-05-10T06:59:25;0.53;;;0.40;;
10904;SDS011;5505;51.450;9.254;2023-05-10T07:02:12;1.83;;;0.43;;
10904;SDS011;5505;51.450;9.254;2023-05-10T07:05:00;0.20;;;0.20;;
10904;SDS011;5505;51.450;9.254;2023-05-10T07:07:47;1.13;;;0.50;;
10904;SDS011;5505;51.450;9.254;2023-05-10T07:10:35;1.00;;;0.20;;
10904;SDS011;5505;51.450;9.254;2023-05-10T07:13:22;1.70;;;0.30;;
10904;SDS011;5505;51.450;9.254;2023-05-10T07:16:09;1.70;;;0.50;;
10904;SDS011;5505;51.450;9.254;2023-05-10T07:18:56;0.77;;;0.40;;
10904;SDS011;5505;51.450;9.254;2023-05-10T07:21:43;1.40;;;0.40;;
10904;SDS011;5505;51.450;9.254;2023-05-10T07:24:30;0.70;;;0.20;;
10904;SDS011;5505;51.450;9.254;2023-05-10T07:27:19;1.07;;;0.60;;
10904;SDS011;5505;51.450;9.254;2023-05-10T07:30:06;0.53;;;0.40;;
10904;SDS011;5505;51.450;9.254;2023-05-10T07:32:54;0.40;;;0.37;;
10904;SDS011;5505;51.450;9.254;2023-05-10T07:35:41;1.80;;;0.40;;
10904;SDS011;5505;51.450;9.254;2023-05-10T07:38:27;2.00;;;0.43;;
10904;SDS011;5505;51.450;9.254;2023-05-10T07:41:14;0.30;;;0.30;;
10904;SDS011;5505;51.450;9.254;2023-05-10T07:44:02;0.73;;;0.60;;
10904;SDS011;5505;51.450;9.254;2023-05-10T07:46:49;0.67;;;0.47;;
10904;SDS011;5505;51.450;9.254;2023-05-10T07:49:37;0.60;;;0.40;;
10904;SDS011;5505;51.450;9.254;2023-05-10T07:52:24;0.40;;;0.40;;
10904;SDS011;5505;51.450;9.254;2023-05-10T07:55:11;1.23;;;0.20;;
10904;SDS011;5505;51.450;9.254;2023-05-10T07:57:57;1.47;;;0.50;;
10904;SDS011;5505;51.450;9.254;2023-05-10T08:00:47;2.13;;;0.40;;
10904;SDS011;5505;51.450;9.254;2023-05-10T08:03:34;0.53;;;0.50;;
10904;SDS011;5505;51.450;9.254;2023-05-10T08:06:21;1.10;;;0.53;;
10904;SDS011;5505;51.450;9.254;2023-05-10T08:09:08;0.73;;;0.50;;
10904;SDS011;5505;51.450;9.254;2023-05-10T08:11:54;0.90;;;0.30;;
10904;SDS011;5505;51.450;9.254;2023-05-10T08:14:42;0.30;;;0.30;;
10904;SDS011;5505;51.450;9.254;2023-05-10T08:17:30;1.27;;;0.50;;
10904;SDS011;5505;51.450;9.254;2023-05-10T08:20:17;1.17;;;0.40;;
10904;SDS011;5505;51.450;9.254;2023-05-10T08:23:04;0.50;;;0.40;;
10904;SDS011;5505;51.450;9.254;2023-05-10T08:25:51;0.80;;;0.50;;
10904;SDS011;5505;51.450;9.254;2023-05-10T08:32:20;1.30;;;0.50;;
10904;SDS011;5505;51.450;9.254;2023-05-10T08:35:08;2.77;;;0.43;;
10904;SDS011;5505;51.450;9.254;2023-05-10T08:37:55;1.47;;;0.50;;
10904;SDS011;5505;51.450;9.254;2023-05-10T08:40:42;1.10;;;0.40;;
10904;SDS011;5505;51.450;9.254;2023-05-10T08:43:30;0.90;;;0.63;;
10904;SDS011;5505;51.450;9.254;2023-05-10T08:46:17;2.00;;;0.90;;
10904;SDS011;5505;51.450;9.254;2023-05-10T08:49:06;0.80;;;0.80;;
10904;SDS011;5505;51.450;9.254;2023-05-10T08:51:55;1.10;;;0.87;;
10904;SDS011;5505;51.450;9.254;2023-05-10T08:54:43;1.70;;;0.80;;
10904;SDS011;5505;51.450;9.254;2023-05-10T08:57:30;1.00;;;0.80;;
10904;SDS011;5505;51.450;9.254;2023-05-10T09:00:17;2.17;;;1.30;;
10904;SDS011;5505;51.450;9.254;2023-05-10T09:03:05;1.57;;;1.40;;
10904;SDS011;5505;51.450;9.254;2023-05-10T09:05:52;1.30;;;1.20;;
10904;SDS011;5505;51.450;9.254;2023-05-10T09:08:42;2.10;;;1.63;;
10904;SDS011;5505;51.450;9.254;2023-05-10T09:11:30;1.60;;;1.50;;
10904;SDS011;5505;51.450;9.254;2023-05-10T09:14:17;3.20;;;2.07;;
10904;SDS011;5505;51.450;9.254;2023-05-10T09:17:05;5.47;;;2.77;;
10904;SDS011;5505;51.450;9.254;2023-05-10T09:19:56;3.17;;;2.87;;
10904;SDS011;5505;51.450;9.254;2023-05-10T09:22:44;5.87;;;3.63;;
10904;SDS011;5505;51.450;9.254;2023-05-10T09:25:32;3.87;;;3.47;;
10904;SDS011;5505;51.450;9.254;2023-05-10T09:28:19;3.97;;;3.57;;
10904;SDS011;5505;51.450;9.254;2023-05-10T09:31:06;3.90;;;3.47;;
10904;SDS011;5505;51.450;9.254;2023-05-10T09:33:53;3.00;;;2.70;;
10904;SDS011;5505;51.450;9.254;2023-05-10T09:36:49;3.77;;;2.80;;
10904;SDS011;5505;51.450;9.254;2023-05-10T09:39:37;3.60;;;3.30;;
10904;SDS011;5505;51.450;9.254;2023-05-10T09:42:25;4.33;;;3.70;;
10904;SDS011;5505;51.450;9.254;2023-05-10T09:45:12;4.97;;;3.67;;
10904;SDS011;5505;51.450;9.254;2023-05-10T09:47:59;4.03;;;3.63;;
10904;SDS011;5505;51.450;9.254;2023-05-10T09:50:55;4.20;;;3.80;;
10904;SDS011;5505;51.450;9.254;2023-05-10T09:53:43;4.60;;;4.20;;
10904;SDS011;5505;51.450;9.254;2023-05-10T09:56:34;4.70;;;4.30;;
10904;SDS011;5505;51.450;9.254;2023-05-10T09:59:24;4.70;;;4.30;;
10904;SDS011;5505;51.450;9.254;2023-05-10T10:02:12;4.40;;;4.00;;
10904;SDS011;5505;51.450;9.254;2023-05-10T10:05:00;4.43;;;4.03;;
10904;SDS011;5505;51.450;9.254;2023-05-10T10:07:47;4.47;;;4.07;;
10904;SDS011;5505;51.450;9.254;2023-05-10T10:10:35;4.77;;;3.80;;
10904;SDS011;5505;51.450;9.254;2023-05-10T10:13:22;4.87;;;4.03;;
10904;SDS011;5505;51.450;9.254;2023-05-10T10:16:10;4.93;;;4.13;;
10904;SDS011;5505;51.450;9.254;2023-05-10T10:18:57;5.67;;;4.63;;
10904;SDS011;5505;51.450;9.254;2023-05-10T10:21:44;5.40;;;4.83;;
10904;SDS011;5505;51.450;9.254;2023-05-10T10:24:31;6.57;;;5.10;;
10904;SDS011;5505;51.450;9.254;2023-05-10T10:27:20;5.80;;;5.20;;
10904;SDS011;5505;51.450;9.254;2023-05-10T10:30:13;5.57;;;4.67;;
10904;SDS011;5505;51.450;9.254;2023-05-10T10:33:18;6.13;;;5.07;;
10904;SDS011;5505;51.450;9.254;2023-05-10T10:36:40;4.90;;;4.40;;
10904;SDS011;5505;51.450;9.254;2023-05-10T10:39:29;5.90;;;4.50;;
10904;SDS011;5505;51.450;9.254;2023-05-10T10:45:31;7.47;;;5.50;;
10904;SDS011;5505;51.450;9.254;2023-05-10T10:48:23;6.10;;;5.17;;
10904;SDS011;5505;51.450;9.254;2023-05-10T10:51:10;6.10;;;5.13;;
10904;SDS011;5505;51.450;9.254;2023-05-10T10:54:08;5.33;;;4.83;;
10904;SDS011;5505;51.450;9.254;2023-05-10T10:57:10;5.20;;;4.70;;
10904;SDS011;5505;51.450;9.254;2023-05-10T11:03:12;5.60;;;4.90;;
10904;SDS011;5505;51.450;9.254;2023-05-10T11:06:05;6.40;;;5.70;;
10904;SDS011;5505;51.450;9.254;2023-05-10T11:08:52;6.20;;;5.60;;
10904;SDS011;5505;51.450;9.254;2023-05-10T11:14:49;5.87;;;5.30;;
10904;SDS011;5505;51.450;9.254;2023-05-10T11:17:36;5.67;;;4.93;;
10904;SDS011;5505;51.450;9.254;2023-05-10T11:20:23;5.43;;;4.93;;
10904;SDS011;5505;51.450;9.254;2023-05-10T11:23:19;6.57;;;4.87;;
10904;SDS011;5505;51.450;9.254;2023-05-10T11:26:07;7.23;;;5.70;;
10904;SDS011;5505;51.450;9.254;2023-05-10T11:28:55;7.47;;;6.17;;
10904;SDS011;5505;51.450;9.254;2023-05-10T11:31:44;9.80;;;8.33;;
10904;SDS011;5505;51.450;9.254;2023-05-10T11:34:31;12.10;;;9.13;;
10904;SDS011;5505;51.450;9.254;2023-05-10T11:37:19;9.37;;;7.97;;
10904;SDS011;5505;51.450;9.254;2023-05-10T11:40:08;9.13;;;8.10;;
10904;SDS011;5505;51.450;9.254;2023-05-10T11:42:56;8.57;;;7.30;;
10904;SDS011;5505;51.450;9.254;2023-05-10T11:45:42;8.77;;;7.63;;
10904;SDS011;5505;51.450;9.254;2023-05-10T11:48:31;9.70;;;6.47;;
10904;SDS011;5505;51.450;9.254;2023-05-10T11:51:19;6.90;;;6.20;;
10904;SDS011;5505;51.450;9.254;2023-05-10T11:54:07;6.33;;;5.73;;
10904;SDS011;5505;51.450;9.254;2023-05-10T11:56:56;5.47;;;4.77;;
10904;SDS011;5505;51.450;9.254;2023-05-10T11:59:43;7.07;;;5.27;;
10904;SDS011;5505;51.450;9.254;2023-05-10T12:02:30;8.50;;;5.80;;
10904;SDS011;5505;51.450;9.254;2023-05-10T12:05:17;8.00;;;6.40;;
10904;SDS011;5505;51.450;9.254;2023-05-10T12:08:11;7.10;;;6.20;;
10904;SDS011;5505;51.450;9.254;2023-05-10T12:11:05;7.10;;;6.40;;
10904;SDS011;5505;51.450;9.254;2023-05-10T12:13:54;7.00;;;6.30;;
10904;SDS011;5505;51.450;9.254;2023-05-10T12:16:42;7.50;;;6.33;;
10904;SDS011;5505;51.450;9.254;2023-05-10T12:19:36;7.80;;;7.00;;
10904;SDS011;5505;51.450;9.254;2023-05-10T12:22:23;7.97;;;6.97;;
10904;SDS011;5505;51.450;9.254;2023-05-10T12:25:10;7.17;;;6.47;;
10904;SDS011;5505;51.450;9.254;2023-05-10T12:27:57;8.43;;;7.53;;
10904;SDS011;5505;51.450;9.254;2023-05-10T12:30:47;8.90;;;6.87;;
10904;SDS011;5505;51.450;9.254;2023-05-10T12:33:37;8.30;;;6.93;;
10904;SDS011;5505;51.450;9.254;2023-05-10T12:36:30;10.63;;;7.00;;
10904;SDS011;5505;51.450;9.254;2023-05-10T12:39:17;7.93;;;7.00;;
10904;SDS011;5505;51.450;9.254;2023-05-10T12:42:04;8.97;;;7.13;;
10904;SDS011;5505;51.450;9.254;2023-05-10T12:44:55;8.77;;;7.87;;
10904;SDS011;5505;51.450;9.254;2023-05-10T12:47:43;8.67;;;7.70;;
10904;SDS011;5505;51.450;9.254;2023-05-10T12:50:30;9.33;;;8.07;;
10904;SDS011;5505;51.450;9.254;2023-05-10T12:53:17;11.30;;;7.83;;
10904;SDS011;5505;51.450;9.254;2023-05-10T12:56:04;7.73;;;6.97;;
10904;SDS011;5505;51.450;9.254;2023-05-10T12:58:51;8.57;;;7.37;;
10904;SDS011;5505;51.450;9.254;2023-05-10T13:01:38;8.93;;;7.87;;
10904;SDS011;5505;51.450;9.254;2023-05-10T13:04:26;8.03;;;6.80;;
10904;SDS011;5505;51.450;9.254;2023-05-10T13:07:13;10.70;;;7.87;;
10904;SDS011;5505;51.450;9.254;2023-05-10T13:10:00;5.60;;;5.10;;
10904;SDS011;5505;51.450;9.254;2023-05-10T13:12:46;5.03;;;3.73;;
10904;SDS011;5505;51.450;9.254;2023-05-10T13:15:33;4.00;;;3.60;;
10904;SDS011;5505;51.450;9.254;2023-05-10T13:18:20;5.90;;;3.50;;
10904;SDS011;5505;51.450;9.254;2023-05-10T13:21:09;6.60;;;3.67;;
10904;SDS011;5505;51.450;9.254;2023-05-10T13:23:56;5.10;;;4.00;;
10904;SDS011;5505;51.450;9.254;2023-05-10T13:26:43;5.43;;;4.47;;
10904;SDS011;5505;51.450;9.254;2023-05-10T13:29:29;6.80;;;4.90;;
10904;SDS011;5505;51.450;9.254;2023-05-10T13:32:16;6.27;;;5.03;;
10904;SDS011;5505;51.450;9.254;2023-05-10T13:35:06;4.10;;;3.70;;
10904;SDS011;5505;51.450;9.254;2023-05-10T13:37:55;5.30;;;3.37;;
10904;SDS011;5505;51.450;9.254;2023-05-10T13:40:42;3.33;;;3.03;;
10904;SDS011;5505;51.450;9.254;2023-05-10T13:43:29;5.40;;;3.30;;
10904;SDS011;5505;51.450;9.254;2023-05-10T13:46:16;8.60;;;3.87;;
10904;SDS011;5505;51.450;9.254;2023-05-10T13:49:03;4.20;;;3.73;;
10904;SDS011;5505;51.450;9.254;2023-05-10T13:51:50;5.87;;;4.20;;
10904;SDS011;5505;51.450;9.254;2023-05-10T13:54:38;5.07;;;4.10;;
10904;SDS011;5505;51.450;9.254;2023-05-10T13:57:25;4.67;;;3.87;;
10904;SDS011;5505;51.450;9.254;2023-05-10T14:00:14;4.90;;;3.70;;
10904;SDS011;5505;51.450;9.254;2023-05-10T14:03:01;5.47;;;3.67;;
10904;SDS011;5505;51.450;9.254;2023-05-10T14:05:49;5.40;;;3.40;;
10904;SDS011;5505;51.450;9.254;2023-05-10T14:08:36;4.20;;;3.50;;
10904;SDS011;5505;51.450;9.254;2023-05-10T14:11:24;5.20;;;3.80;;
10904;SDS011;5505;51.450;9.254;2023-05-10T14:14:11;5.70;;;3.30;;
10904;SDS011;5505;51.450;9.254;2023-05-10T14:16:59;5.07;;;3.57;;
10904;SDS011;5505;51.450;9.254;2023-05-10T14:19:45;4.60;;;3.47;;
10904;SDS011;5505;51.450;9.254;2023-05-10T14:22:32;3.47;;;3.17;;
10904;SDS011;5505;51.450;9.254;2023-05-10T14:25:19;6.77;;;3.70;;
10904;SDS011;5505;51.450;9.254;2023-05-10T14:28:07;7.10;;;3.57;;
10904;SDS011;5505;51.450;9.254;2023-05-10T14:30:54;5.10;;;4.07;;
10904;SDS011;5505;51.450;9.254;2023-05-10T14:33:41;5.37;;;3.90;;
10904;SDS011;5505;51.450;9.254;2023-05-10T14:36:27;4.83;;;4.20;;
10904;SDS011;5505;51.450;9.254;2023-05-10T14:39:15;6.70;;;3.90;;
10904;SDS011;5505;51.450;9.254;2023-05-10T14:42:01;5.10;;;4.00;;
10904;SDS011;5505;51.450;9.254;2023-05-10T14:44:50;4.23;;;3.83;;
10904;SDS011;5505;51.450;9.254;2023-05-10T14:47:37;4.60;;;4.07;;
10904;SDS011;5505;51.450;9.254;2023-05-10T14:50:23;4.63;;;3.40;;
10904;SDS011;5505;51.450;9.254;2023-05-10T14:53:11;4.90;;;3.20;;
10904;SDS011;5505;51.450;9.254;2023-05-10T14:55:57;5.37;;;3.90;;
10904;SDS011;5505;51.450;9.254;2023-05-10T14:58:46;3.93;;;3.00;;
10904;SDS011;5505;51.450;9.254;2023-05-10T15:01:34;4.87;;;3.50;;
10904;SDS011;5505;51.450;9.254;2023-05-10T15:04:22;4.20;;;3.47;;
10904;SDS011;5505;51.450;9.254;2023-05-10T15:07:09;3.00;;;2.70;;
10904;SDS011;5505;51.450;9.254;2023-05-10T15:09:59;3.83;;;2.80;;
10904;SDS011;5505;51.450;9.254;2023-05-10T15:12:46;3.67;;;2.40;;
10904;SDS011;5505;51.450;9.254;2023-05-10T15:15:32;2.60;;;2.40;;
10904;SDS011;5505;51.450;9.254;2023-05-10T15:18:21;2.53;;;2.30;;
10904;SDS011;5505;51.450;9.254;2023-05-10T15:21:07;3.20;;;2.50;;
10904;SDS011;5505;51.450;9.254;2023-05-10T15:23:54;4.97;;;2.70;;
10904;SDS011;5505;51.450;9.254;2023-05-10T15:26:41;3.83;;;2.70;;
10904;SDS011;5505;51.450;9.254;2023-05-10T15:29:28;3.00;;;2.43;;
10904;SDS011;5505;51.450;9.254;2023-05-10T15:32:16;4.93;;;2.60;;
10904;SDS011;5505;51.450;9.254;2023-05-10T15:35:05;2.60;;;2.40;;
10904;SDS011;5505;51.450;9.254;2023-05-10T15:37:52;3.17;;;2.60;;
10904;SDS011;5505;51.450;9.254;2023-05-10T15:40:39;2.80;;;2.30;;
10904;SDS011;5505;51.450;9.254;2023-05-10T15:43:26;4.03;;;2.50;;
10904;SDS011;5505;51.450;9.254;2023-05-10T15:46:12;2.50;;;2.30;;
10904;SDS011;5505;51.450;9.254;2023-05-10T15:48:59;3.27;;;1.90;;
10904;SDS011;5505;51.450;9.254;2023-05-10T15:51:47;2.70;;;2.43;;
10904;SDS011;5505;51.450;9.254;2023-05-10T15:54:34;2.80;;;2.23;;
10904;SDS011;5505;51.450;9.254;2023-05-10T15:57:21;4.63;;;2.50;;
10904;SDS011;5505;51.450;9.254;2023-05-10T16:00:08;3.23;;;2.13;;
10904;SDS011;5505;51.450;9.254;2023-05-10T16:02:58;3.93;;;2.50;;
10904;SDS011;5505;51.450;9.254;2023-05-10T16:05:45;5.47;;;2.40;;
10904;SDS011;5505;51.450;9.254;2023-05-10T16:08:33;3.27;;;2.10;;
10904;SDS011;5505;51.450;9.254;2023-05-10T16:11:20;2.40;;;2.20;;
10904;SDS011;5505;51.450;9.254;2023-05-10T16:14:07;2.80;;;2.20;;
10904;SDS011;5505;51.450;9.254;2023-05-10T16:16:54;2.37;;;2.17;;
10904;SDS011;5505;51.450;9.254;2023-05-10T16:19:41;2.90;;;2.60;;
10904;SDS011;5505;51.450;9.254;2023-05-10T16:22:27;3.60;;;2.00;;
10904;SDS011;5505;51.450;9.254;2023-05-10T16:25:16;3.23;;;2.50;;
10904;SDS011;5505;51.450;9.254;2023-05-10T16:28:03;2.80;;;2.60;;
10904;SDS011;5505;51.450;9.254;2023-05-10T16:30:50;5.67;;;2.80;;
10904;SDS011;5505;51.450;9.254;2023-05-10T16:33:36;4.63;;;3.40;;
10904;SDS011;5505;51.450;9.254;2023-05-10T16:36:23;3.80;;;3.00;;
10904;SDS011;5505;51.450;9.254;2023-05-10T16:39:10;3.67;;;3.10;;
10904;SDS011;5505;51.450;9.254;2023-05-10T16:41:58;4.03;;;2.87;;
10904;SDS011;5505;51.450;9.254;2023-05-10T16:44:45;3.20;;;2.60;;
10904;SDS011;5505;51.450;9.254;2023-05-10T16:47:31;2.80;;;2.60;;
10904;SDS011;5505;51.450;9.254;2023-05-10T16:50:18;2.60;;;2.40;;
10904;SDS011;5505;51.450;9.254;2023-05-10T16:53:05;2.70;;;2.50;;
10904;SDS011;5505;51.450;9.254;2023-05-10T16:55:53;2.67;;;2.47;;
10904;SDS011;5505;51.450;9.254;2023-05-10T16:58:41;2.83;;;2.40;;
10904;SDS011;5505;51.450;9.254;2023-05-10T17:01:28;6.13;;;2.57;;
10904;SDS011;5505;51.450;9.254;2023-05-10T17:04:14;3.37;;;2.80;;
10904;SDS011;5505;51.450;9.254;2023-05-10T17:07:01;3.93;;;3.10;;
10904;SDS011;5505;51.450;9.254;2023-05-10T17:09:48;3.23;;;2.67;;
10904;SDS011;5505;51.450;9.254;2023-05-10T17:12:35;3.67;;;2.93;;
10904;SDS011;5505;51.450;9.254;2023-05-10T17:15:23;3.67;;;2.87;;
10904;SDS011;5505;51.450;9.254;2023-05-10T17:18:10;5.03;;;2.83;;
10904;SDS011;5505;51.450;9.254;2023-05-10T17:20:57;4.43;;;3.20;;
10904;SDS011;5505;51.450;9.254;2023-05-10T17:23:43;3.63;;;3.27;;